createdAt,value
2017-09-11T00:00:28.865Z,24.5
2017-09-11T00:01:30.659Z,24.5
2017-09-11T00:02:32.789Z,24.6
2017-09-11T00:03:34.918Z,24.5
2017-09-11T00:04:36.711Z,24.5
2017-09-11T00:05:38.503Z,24.5
2017-09-11T00:06:40.276Z,24.5
2017-09-11T00:07:42.048Z,24.5
2017-09-11T00:08:43.820Z,24.5
2017-09-11T00:09:45.950Z,24.5
2017-09-11T00:10:47.409Z,24.5
2017-09-11T00:11:48.871Z,24.5
2017-09-11T00:12:50.309Z,24.5
2017-09-11T00:13:51.747Z,24.5
2017-09-11T00:14:53.537Z,24.5
2017-09-11T00:15:55.333Z,24.5
2017-09-11T00:16:57.105Z,24.5
2017-09-11T00:17:58.902Z,24.5
2017-09-11T00:19:00.007Z,24.5
2017-09-11T00:20:01.798Z,24.4
2017-09-11T00:21:03.589Z,24.5
2017-09-11T00:22:05.381Z,24.5
2017-09-11T00:23:06.819Z,24.5
2017-09-11T00:24:08.588Z,24.5
2017-09-11T00:25:10.029Z,24.5
2017-09-11T00:26:11.823Z,24.4
2017-09-11T00:27:13.287Z,24.5
2017-09-11T00:28:15.074Z,24.4
2017-09-11T00:29:16.870Z,24.5
2017-09-11T00:30:18.303Z,24.4
2017-09-11T00:31:20.432Z,24.5
2017-09-11T00:32:22.226Z,24.5
2017-09-11T00:33:23.685Z,24.3
2017-09-11T00:34:25.141Z,24.5
2017-09-11T00:35:27.270Z,24.5
2017-09-11T00:36:29.061Z,24.4
2017-09-11T00:37:30.500Z,24.5
2017-09-11T00:38:32.292Z,24.4
2017-09-11T00:39:34.418Z,24.4
2017-09-11T00:40:35.857Z,24.4
2017-09-11T00:41:37.654Z,24.4
2017-09-11T00:42:39.448Z,24.4
2017-09-11T00:43:41.575Z,24.5
2017-09-11T00:44:43.348Z,24.5
2017-09-11T00:45:44.787Z,24.5
2017-09-11T00:46:46.222Z,24.4
2017-09-11T00:47:47.660Z,24.4
2017-09-11T00:48:49.450Z,24.5
2017-09-11T00:49:51.580Z,24.4
2017-09-11T00:50:53.707Z,24.5
2017-09-11T00:51:55.503Z,24.4
2017-09-11T00:52:57.291Z,24.4
2017-09-11T00:53:59.063Z,24.4
2017-09-11T00:55:00.518Z,24.5
2017-09-11T00:56:02.313Z,24.3
2017-09-11T00:57:03.772Z,24.4
2017-09-11T00:58:05.210Z,24.4
2017-09-11T00:59:06.667Z,24.4
2017-09-11T01:00:08.124Z,24.4
2017-09-11T01:01:10.254Z,24.4
2017-09-11T01:02:12.383Z,24.4
2017-09-11T01:03:14.511Z,24.5
2017-09-11T01:04:15.632Z,24.5
2017-09-11T01:05:16.735Z,24.5
2017-09-11T01:06:18.529Z,24.4
2017-09-11T01:07:20.656Z,24.4
2017-09-11T01:08:22.427Z,24.5
2017-09-11T01:09:23.863Z,24.4
2017-09-11T01:10:25.319Z,24.4
2017-09-11T01:11:27.447Z,24.4
2017-09-11T01:12:29.230Z,24.4
2017-09-11T01:13:30.356Z,24.4
2017-09-11T01:14:31.812Z,24.4
2017-09-11T01:15:34.000Z,24.4
2017-09-11T01:16:35.790Z,24.4
2017-09-11T01:17:37.580Z,24.4
2017-09-11T01:18:39.711Z,24.4
2017-09-11T01:19:41.500Z,24.4
2017-09-11T01:20:42.968Z,24.4
2017-09-11T01:21:44.737Z,24.4
2017-09-11T01:22:46.865Z,24.3
2017-09-11T01:23:48.633Z,24.4
2017-09-11T01:24:49.401Z,24.3
2017-09-11T01:25:51.173Z,24.4
2017-09-11T01:26:53.302Z,24.4
2017-09-11T01:27:54.408Z,24.4
2017-09-11T01:28:55.866Z,24.4
2017-09-11T01:29:57.299Z,24.4
2017-09-11T01:30:58.774Z,24.4
2017-09-11T01:31:59.896Z,24.4
2017-09-11T01:33:02.024Z,24.4
2017-09-11T01:34:03.488Z,24.4
2017-09-11T01:35:05.260Z,24.4
2017-09-11T01:36:07.057Z,24.4
2017-09-11T01:37:08.180Z,24.4
2017-09-11T01:38:09.978Z,24.3
2017-09-11T01:39:11.433Z,24.4
2017-09-11T01:40:13.202Z,24.4
2017-09-11T01:41:15.329Z,24.3
2017-09-11T01:42:17.123Z,24.4
2017-09-11T01:43:18.570Z,24.4
2017-09-11T01:44:20.380Z,24.4
2017-09-11T01:45:21.838Z,24.4
2017-09-11T01:46:22.605Z,24.4
2017-09-11T01:47:24.044Z,24.4
2017-09-11T01:48:25.834Z,24.4
2017-09-11T01:49:27.655Z,24.4
2017-09-11T01:50:29.784Z,24.4
2017-09-11T01:51:31.222Z,24.4
2017-09-11T01:52:33.355Z,24.4
2017-09-11T01:53:34.116Z,24.3
2017-09-11T01:54:35.890Z,24.4
2017-09-11T01:55:38.019Z,24.4
2017-09-11T01:56:39.815Z,24.4
2017-09-11T01:57:41.583Z,24.4
2017-09-11T01:58:43.376Z,24.3
2017-09-11T01:59:45.146Z,24.4
2017-09-11T02:00:46.918Z,24.4
2017-09-11T02:01:48.712Z,24.4
2017-09-11T02:02:50.839Z,24.4
2017-09-11T02:03:52.966Z,24.4
2017-09-11T02:04:54.763Z,24.3
2017-09-11T02:05:56.562Z,24.4
2017-09-11T02:06:58.378Z,24.4
2017-09-11T02:08:00.147Z,24.4
2017-09-11T02:09:01.616Z,24.3
2017-09-11T02:10:02.724Z,24.4
2017-09-11T02:11:03.825Z,24.4
2017-09-11T02:12:05.282Z,24.4
2017-09-11T02:13:06.720Z,24.4
2017-09-11T02:14:08.156Z,24.4
2017-09-11T02:15:09.598Z,24.3
2017-09-11T02:16:11.035Z,24.4
2017-09-11T02:17:12.830Z,24.3
2017-09-11T02:18:14.960Z,24.3
2017-09-11T02:19:16.396Z,24.4
2017-09-11T02:20:17.854Z,24.3
2017-09-11T02:21:18.979Z,24.3
2017-09-11T02:22:20.774Z,24.4
2017-09-11T02:23:22.568Z,24.4
2017-09-11T02:24:24.362Z,24.3
2017-09-11T02:25:26.156Z,24.3
2017-09-11T02:26:27.951Z,24.4
2017-09-11T02:27:29.743Z,24.4
2017-09-11T02:28:31.539Z,24.4
2017-09-11T02:29:32.977Z,24.4
2017-09-11T02:30:35.103Z,24.2
2017-09-11T02:31:36.560Z,24.3
2017-09-11T02:32:38.355Z,24.3
2017-09-11T02:33:40.161Z,24.3
2017-09-11T02:34:41.954Z,24.4
2017-09-11T02:35:43.726Z,24.3
2017-09-11T02:36:44.827Z,24.3
2017-09-11T02:37:46.596Z,24.4
2017-09-11T02:38:48.386Z,24.3
2017-09-11T02:39:50.513Z,24.3
2017-09-11T02:40:52.283Z,24.2
2017-09-11T02:41:54.412Z,24.3
2017-09-11T02:42:56.544Z,24.3
2017-09-11T02:43:57.641Z,24.4
2017-09-11T02:44:59.099Z,24.4
2017-09-11T02:46:00.892Z,24.4
2017-09-11T02:47:02.704Z,24.3
2017-09-11T02:48:04.832Z,24.4
2017-09-11T02:49:06.602Z,24.3
2017-09-11T02:50:07.702Z,24.4
2017-09-11T02:51:08.822Z,24.3
2017-09-11T02:52:10.603Z,24.3
2017-09-11T02:53:12.733Z,24.3
2017-09-11T02:54:13.857Z,24.3
2017-09-11T02:55:14.982Z,24.4
2017-09-11T02:56:16.772Z,24.3
2017-09-11T02:57:18.565Z,24.3
2017-09-11T02:58:20.341Z,24.3
2017-09-11T02:59:22.132Z,24.3
2017-09-11T03:00:23.924Z,24.4
2017-09-11T03:01:25.715Z,24.3
2017-09-11T03:02:27.843Z,24.3
2017-09-11T03:03:29.634Z,24.3
2017-09-11T03:04:31.070Z,24.3
2017-09-11T03:05:32.863Z,24.4
2017-09-11T03:06:34.312Z,24.3
2017-09-11T03:07:35.778Z,24.3
2017-09-11T03:08:37.907Z,24.3
2017-09-11T03:09:40.034Z,24.2
2017-09-11T03:10:42.163Z,24.3
2017-09-11T03:11:44.289Z,24.4
2017-09-11T03:12:45.748Z,24.3
2017-09-11T03:13:47.541Z,24.3
2017-09-11T03:14:49.669Z,24.3
2017-09-11T03:15:51.462Z,24.3
2017-09-11T03:16:53.257Z,24.3
2017-09-11T03:17:55.052Z,24.3
2017-09-11T03:18:56.824Z,24.3
2017-09-11T03:19:58.620Z,24.3
2017-09-11T03:21:00.060Z,24.3
2017-09-11T03:22:02.194Z,24.3
2017-09-11T03:23:03.630Z,24.3
2017-09-11T03:24:05.087Z,24.3
2017-09-11T03:25:06.858Z,24.3
2017-09-11T03:26:08.648Z,24.3
2017-09-11T03:27:10.420Z,24.3
2017-09-11T03:28:11.519Z,24.3
2017-09-11T03:29:13.311Z,24.3
2017-09-11T03:30:14.772Z,24.2
2017-09-11T03:31:16.902Z,24.3
2017-09-11T03:32:18.671Z,24.3
2017-09-11T03:33:20.462Z,24.3
2017-09-11T03:34:21.901Z,24.2
2017-09-11T03:35:23.345Z,24.3
2017-09-11T03:36:25.473Z,24.3
2017-09-11T03:37:27.269Z,24.3
2017-09-11T03:38:29.063Z,24.2
2017-09-11T03:39:30.854Z,24.3
2017-09-11T03:40:32.650Z,24.3
2017-09-11T03:41:34.424Z,24.3
2017-09-11T03:42:36.214Z,24.3
2017-09-11T03:43:38.009Z,24.3
2017-09-11T03:44:39.777Z,24.3
2017-09-11T03:45:41.572Z,24.3
2017-09-11T03:46:43.010Z,24.2
2017-09-11T03:47:44.807Z,24.3
2017-09-11T03:48:46.246Z,24.3
2017-09-11T03:49:47.373Z,24.2
2017-09-11T03:50:49.136Z,24.2
2017-09-11T03:51:51.267Z,24.3
2017-09-11T03:52:52.741Z,24.3
2017-09-11T03:53:54.169Z,24.3
2017-09-11T03:54:55.963Z,24.3
2017-09-11T03:55:57.755Z,24.3
2017-09-11T03:56:58.858Z,24.3
2017-09-11T03:58:00.988Z,24.3
2017-09-11T03:59:03.130Z,24.3
2017-09-11T04:00:05.258Z,24.3
2017-09-11T04:01:06.356Z,24.3
2017-09-11T04:02:08.152Z,24.3
2017-09-11T04:03:09.612Z,24.3
2017-09-11T04:04:11.049Z,24.3
2017-09-11T04:05:12.842Z,24.3
2017-09-11T04:06:14.624Z,24.2
2017-09-11T04:07:16.742Z,24.2
2017-09-11T04:08:18.179Z,24.3
2017-09-11T04:09:19.654Z,24.3
2017-09-11T04:10:21.781Z,24.3
2017-09-11T04:11:23.911Z,24.3
2017-09-11T04:12:25.350Z,24.3
2017-09-11T04:13:26.809Z,24.2
2017-09-11T04:14:28.271Z,24.3
2017-09-11T04:15:30.044Z,24.2
2017-09-11T04:16:32.181Z,24.3
2017-09-11T04:17:33.632Z,24.3
2017-09-11T04:18:35.757Z,24.2
2017-09-11T04:19:37.886Z,24.2
2017-09-11T04:20:39.343Z,24.2
2017-09-11T04:21:40.802Z,24.3
2017-09-11T04:22:42.238Z,24.3
2017-09-11T04:23:44.367Z,24.3
2017-09-11T04:24:46.494Z,24.2
2017-09-11T04:25:48.290Z,24.3
2017-09-11T04:26:49.745Z,24.3
2017-09-11T04:27:51.871Z,24.3
2017-09-11T04:28:53.665Z,24.2
2017-09-11T04:29:55.125Z,24.3
2017-09-11T04:30:55.925Z,24.2
2017-09-11T04:31:58.058Z,24.3
2017-09-11T04:33:00.186Z,24.2
2017-09-11T04:34:02.318Z,24.2
2017-09-11T04:35:03.771Z,24.2
2017-09-11T04:36:05.565Z,24.2
2017-09-11T04:37:07.360Z,24.2
2017-09-11T04:38:09.488Z,24.2
2017-09-11T04:39:11.620Z,24.2
2017-09-11T04:40:13.416Z,24.3
2017-09-11T04:41:14.517Z,24.2
2017-09-11T04:42:16.656Z,24.2
2017-09-11T04:43:18.447Z,24.2
2017-09-11T04:44:19.908Z,24.3
2017-09-11T04:45:21.702Z,24.3
2017-09-11T04:46:23.138Z,24.3
2017-09-11T04:47:24.931Z,24.2
2017-09-11T04:48:26.365Z,24.2
2017-09-11T04:49:27.801Z,24.2
2017-09-11T04:50:29.573Z,24.3
2017-09-11T04:51:31.372Z,24.2
2017-09-11T04:52:33.161Z,24.3
2017-09-11T04:53:34.935Z,24.2
2017-09-11T04:54:36.370Z,24.2
2017-09-11T04:55:38.499Z,24.3
2017-09-11T04:56:40.014Z,24.3
2017-09-11T04:57:41.806Z,24.2
2017-09-11T04:58:43.601Z,24.2
2017-09-11T04:59:45.393Z,24.2
2017-09-11T05:00:46.851Z,24.2
2017-09-11T05:01:48.646Z,24.2
2017-09-11T05:02:50.466Z,24.2
2017-09-11T05:03:51.911Z,24.3
2017-09-11T05:04:53.373Z,24.3
2017-09-11T05:05:55.165Z,24.2
2017-09-11T05:06:56.967Z,24.2
2017-09-11T05:07:58.436Z,24.3
2017-09-11T05:09:00.564Z,24.2
2017-09-11T05:10:02.360Z,24.3
2017-09-11T05:11:04.153Z,24.2
2017-09-11T05:12:06.054Z,24.3
2017-09-11T05:13:07.847Z,24.2
2017-09-11T05:14:09.644Z,24.3
2017-09-11T05:15:11.079Z,24.3
2017-09-11T05:16:13.207Z,24.3
2017-09-11T05:17:14.667Z,24.3
2017-09-11T05:18:15.774Z,24.3
2017-09-11T05:19:17.903Z,24.3
2017-09-11T05:20:19.365Z,24.2
2017-09-11T05:21:20.804Z,24.3
2017-09-11T05:22:22.575Z,24.2
2017-09-11T05:23:24.704Z,24.2
2017-09-11T05:24:26.497Z,24.3
2017-09-11T05:25:27.959Z,24.2
2017-09-11T05:26:29.749Z,24.3
2017-09-11T05:27:31.879Z,24.3
2017-09-11T05:28:33.320Z,24.3
2017-09-11T05:29:34.758Z,24.3
2017-09-11T05:30:36.198Z,24.2
2017-09-11T05:31:37.640Z,24.2
2017-09-11T05:32:39.128Z,24.3
2017-09-11T05:33:40.897Z,24.3
2017-09-11T05:34:42.689Z,24.2
2017-09-11T05:35:44.815Z,24.3
2017-09-11T05:36:46.274Z,24.2
2017-09-11T05:37:47.710Z,24.3
2017-09-11T05:38:49.511Z,24.2
2017-09-11T05:39:51.287Z,24.3
2017-09-11T05:40:52.723Z,24.3
2017-09-11T05:41:53.827Z,24.2
2017-09-11T05:42:55.624Z,24.3
2017-09-11T05:43:57.753Z,24.3
2017-09-11T05:44:59.548Z,24.3
2017-09-11T05:46:00.985Z,24.3
2017-09-11T05:47:02.780Z,24.3
2017-09-11T05:48:04.236Z,24.2
2017-09-11T05:49:05.702Z,24.2
2017-09-11T05:50:07.166Z,24.2
2017-09-11T05:51:08.963Z,24.2
2017-09-11T05:52:10.754Z,24.2
2017-09-11T05:53:12.878Z,24.3
2017-09-11T05:54:14.337Z,24.2
2017-09-11T05:55:15.793Z,24.3
2017-09-11T05:56:17.925Z,24.2
2017-09-11T05:57:19.033Z,24.3
2017-09-11T05:58:21.158Z,24.3
2017-09-11T05:59:22.262Z,24.2
2017-09-11T06:00:24.056Z,24.3
2017-09-11T06:01:25.853Z,24.3
2017-09-11T06:02:27.310Z,24.2
2017-09-11T06:03:28.748Z,24.3
2017-09-11T06:04:29.852Z,24.3
2017-09-11T06:05:31.630Z,24.3
2017-09-11T06:06:33.071Z,24.2
2017-09-11T06:07:34.508Z,24.3
2017-09-11T06:08:35.967Z,24.2
2017-09-11T06:09:37.764Z,24.3
2017-09-11T06:10:39.892Z,24.3
2017-09-11T06:11:41.331Z,24.2
2017-09-11T06:12:42.790Z,24.3
2017-09-11T06:13:44.918Z,24.3
2017-09-11T06:14:47.046Z,24.2
2017-09-11T06:15:48.840Z,24.3
2017-09-11T06:16:50.982Z,24.2
2017-09-11T06:17:52.419Z,24.3
2017-09-11T06:18:54.215Z,24.2
2017-09-11T06:19:56.006Z,24.3
2017-09-11T06:20:58.135Z,24.2
2017-09-11T06:21:59.908Z,24.2
2017-09-11T06:23:02.038Z,24.2
2017-09-11T06:24:03.494Z,24.2
2017-09-11T06:25:05.292Z,24.4
2017-09-11T06:26:07.075Z,24.4
2017-09-11T06:27:08.538Z,24.3
2017-09-11T06:28:09.997Z,24.4
2017-09-11T06:29:11.788Z,24.4
2017-09-11T06:30:13.583Z,24.3
2017-09-11T06:31:15.018Z,24.3
2017-09-11T06:32:16.457Z,24.3
2017-09-11T06:33:18.583Z,24.4
2017-09-11T06:34:20.713Z,24.3
2017-09-11T06:35:21.840Z,24.4
2017-09-11T06:36:23.639Z,24.4
2017-09-11T06:37:25.765Z,24.3
2017-09-11T06:38:27.561Z,24.3
2017-09-11T06:39:29.365Z,24.4
2017-09-11T06:40:31.169Z,24.4
2017-09-11T06:41:31.948Z,24.4
2017-09-11T06:42:33.754Z,24.4
2017-09-11T06:43:34.535Z,24.3
2017-09-11T06:44:36.002Z,24.4
2017-09-11T06:45:37.107Z,24.4
2017-09-11T06:46:38.904Z,24.4
2017-09-11T06:47:40.349Z,24.4
2017-09-11T06:48:42.480Z,24.4
2017-09-11T06:49:44.280Z,24.4
2017-09-11T06:50:46.081Z,24.4
2017-09-11T06:51:48.214Z,24.4
2017-09-11T06:52:49.664Z,24.3
2017-09-11T06:53:51.458Z,24.4
2017-09-11T06:54:52.568Z,24.3
2017-09-11T06:55:54.031Z,24.3
2017-09-11T06:56:55.829Z,24.4
2017-09-11T06:57:57.271Z,24.4
2017-09-11T06:58:58.708Z,24.4
2017-09-11T07:00:00.860Z,24.3
2017-09-11T07:01:02.322Z,24.4
2017-09-11T07:02:03.766Z,24.4
2017-09-11T07:03:05.230Z,24.4
2017-09-11T07:04:06.348Z,24.4
2017-09-11T07:05:08.150Z,24.4
2017-09-11T07:06:09.946Z,24.4
2017-09-11T07:07:11.722Z,24.4
2017-09-11T07:08:13.518Z,24.4
2017-09-11T07:09:15.291Z,24.4
2017-09-11T07:10:17.061Z,24.4
2017-09-11T07:11:18.841Z,24.3
2017-09-11T07:12:20.970Z,24.3
2017-09-11T07:13:23.101Z,24.4
2017-09-11T07:14:24.562Z,24.3
2017-09-11T07:15:26.364Z,24.4
2017-09-11T07:16:28.493Z,24.5
2017-09-11T07:17:30.285Z,24.3
2017-09-11T07:18:32.420Z,24.3
2017-09-11T07:19:34.551Z,24.4
2017-09-11T07:20:36.345Z,24.3
2017-09-11T07:21:38.135Z,24.3
2017-09-11T07:22:40.270Z,24.3
2017-09-11T07:23:42.062Z,24.4
2017-09-11T07:24:43.524Z,24.4
2017-09-11T07:25:45.325Z,24.3
2017-09-11T07:26:46.791Z,24.4
2017-09-11T07:27:48.612Z,24.4
2017-09-11T07:28:50.049Z,24.4
2017-09-11T07:29:51.848Z,24.4
2017-09-11T07:30:53.742Z,24.3
2017-09-11T07:31:55.540Z,24.4
2017-09-11T07:32:57.666Z,24.4
2017-09-11T07:33:59.795Z,24.4
2017-09-11T07:35:01.592Z,24.4
2017-09-11T07:36:03.059Z,24.4
2017-09-11T07:37:04.498Z,24.5
2017-09-11T07:38:06.271Z,24.4
2017-09-11T07:39:07.714Z,24.3
2017-09-11T07:40:09.506Z,24.4
2017-09-11T07:41:11.283Z,24.4
2017-09-11T07:42:13.086Z,24.4
2017-09-11T07:43:14.879Z,24.4
2017-09-11T07:44:16.674Z,24.4
2017-09-11T07:45:18.118Z,24.5
2017-09-11T07:46:19.239Z,24.4
2017-09-11T07:47:20.540Z,24.4
2017-09-11T07:48:22.716Z,24.4
2017-09-11T07:49:24.509Z,24.4
2017-09-11T07:50:26.637Z,24.4
2017-09-11T07:51:27.748Z,24.4
2017-09-11T07:52:29.547Z,24.4
2017-09-11T07:53:31.342Z,24.4
2017-09-11T07:54:33.140Z,24.4
2017-09-11T07:55:34.914Z,24.4
2017-09-11T07:56:36.713Z,24.4
2017-09-11T07:57:38.182Z,24.4
2017-09-11T07:58:40.006Z,24.3
2017-09-11T07:59:41.127Z,24.4
2017-09-11T08:00:42.588Z,24.4
2017-09-11T08:01:44.719Z,24.3
2017-09-11T08:02:46.515Z,24.4
2017-09-11T08:03:47.651Z,24.4
2017-09-11T08:04:49.786Z,24.4
2017-09-11T08:05:51.250Z,24.5
2017-09-11T08:08:25.587Z,24.4
2017-09-11T08:09:27.715Z,24.5
2017-09-11T08:10:29.182Z,24.5
2017-09-11T08:11:30.649Z,24.4
2017-09-11T08:12:32.447Z,24.4
2017-09-11T08:13:34.246Z,24.4
2017-09-11T08:14:36.030Z,24.4
2017-09-11T08:15:36.889Z,24.4
2017-09-11T08:16:39.085Z,24.5
2017-09-11T08:17:41.379Z,24.4
2017-09-11T08:18:43.369Z,24.4
2017-09-11T08:19:44.835Z,24.4
2017-09-11T08:20:46.608Z,24.4
2017-09-11T08:21:48.381Z,24.4
2017-09-11T08:22:50.249Z,24.4
2017-09-11T08:23:52.569Z,24.4
2017-09-11T08:24:54.034Z,24.4
2017-09-11T08:25:55.810Z,24.4
2017-09-11T08:26:57.586Z,24.5
2017-09-11T08:27:59.047Z,24.4
2017-09-11T08:29:00.175Z,24.4
2017-09-11T08:30:02.303Z,24.4
2017-09-11T08:31:04.434Z,24.5
2017-09-11T08:32:06.212Z,24.4
2017-09-11T08:33:07.656Z,24.4
2017-09-11T08:34:09.459Z,24.5
2017-09-11T08:35:10.921Z,24.4
2017-09-11T08:36:12.714Z,24.4
2017-09-11T08:37:13.821Z,24.5
2017-09-11T08:38:15.338Z,24.4
2017-09-11T08:39:16.448Z,24.5
2017-09-11T08:40:17.918Z,24.5
2017-09-11T08:41:19.714Z,24.5
2017-09-11T08:42:21.520Z,24.5
2017-09-11T08:43:23.034Z,24.5
2017-09-11T08:44:24.862Z,24.5
2017-09-11T08:45:25.991Z,24.5
2017-09-11T08:46:27.433Z,24.6
2017-09-11T08:47:29.567Z,24.5
2017-09-11T08:48:31.341Z,24.5
2017-09-11T08:49:32.787Z,24.6
2017-09-11T08:50:34.586Z,24.5
2017-09-11T08:51:36.383Z,24.5
2017-09-11T08:52:37.846Z,24.6
2017-09-11T08:53:39.986Z,24.5
2017-09-11T08:54:41.780Z,24.6
2017-09-11T08:55:43.911Z,24.5
2017-09-11T08:56:46.039Z,24.6
2017-09-11T08:57:47.539Z,24.5
2017-09-11T08:58:49.459Z,24.5
2017-09-11T08:59:51.587Z,24.5
2017-09-11T09:00:53.050Z,24.6
2017-09-11T09:01:54.534Z,24.5
2017-09-11T09:02:56.666Z,24.5
2017-09-11T09:03:58.133Z,24.5
2017-09-11T09:04:59.604Z,24.5
2017-09-11T09:06:01.408Z,24.6
2017-09-11T09:07:03.204Z,24.5
2017-09-11T09:08:05.002Z,24.5
2017-09-11T09:09:06.801Z,24.6
2017-09-11T09:10:08.582Z,24.6
2017-09-11T09:11:10.379Z,24.6
2017-09-11T09:12:12.517Z,24.6
2017-09-11T09:13:13.961Z,24.7
2017-09-11T09:14:15.758Z,24.6
2017-09-11T09:15:17.558Z,24.6
2017-09-11T09:16:19.356Z,24.7
2017-09-11T09:17:21.131Z,24.7
2017-09-11T09:18:22.573Z,24.7
2017-09-11T09:19:24.349Z,24.8
2017-09-11T09:20:25.813Z,24.7
2017-09-11T09:21:27.608Z,24.7
2017-09-11T09:22:29.406Z,24.7
2017-09-11T09:23:31.202Z,24.7
2017-09-11T09:24:33.331Z,24.8
2017-09-11T09:25:35.128Z,24.8
2017-09-11T09:26:37.257Z,24.8
2017-09-11T09:27:39.060Z,24.7
2017-09-11T09:28:40.853Z,24.8
2017-09-11T09:29:42.649Z,24.8
2017-09-11T09:30:44.092Z,24.8
2017-09-11T09:31:45.892Z,24.8
2017-09-11T09:32:47.691Z,24.9
2017-09-11T09:33:49.496Z,24.8
2017-09-11T09:34:51.296Z,24.8
2017-09-11T09:35:53.074Z,24.9
2017-09-11T09:36:54.870Z,24.8
2017-09-11T09:37:56.317Z,24.8
2017-09-11T09:38:58.124Z,24.8
2017-09-11T09:39:59.586Z,24.8
2017-09-11T09:41:01.055Z,24.8
2017-09-11T09:42:03.183Z,24.8
2017-09-11T09:43:04.982Z,24.8
2017-09-11T09:44:07.125Z,24.9
2017-09-11T09:45:08.595Z,24.8
2017-09-11T09:46:10.766Z,24.9
2017-09-11T09:47:12.999Z,24.8
2017-09-11T09:48:14.821Z,24.9
2017-09-11T09:49:16.649Z,24.9
2017-09-11T09:50:18.406Z,24.9
2017-09-11T09:51:19.981Z,24.9
2017-09-11T09:52:21.442Z,24.9
2017-09-11T09:53:22.546Z,24.9
2017-09-11T09:54:24.346Z,24.9
2017-09-11T09:55:26.119Z,24.9
2017-09-11T09:56:28.251Z,24.9
2017-09-11T09:57:30.027Z,25
2017-09-11T09:58:32.162Z,24.9
2017-09-11T09:59:33.603Z,24.9
2017-09-11T10:00:35.402Z,25
2017-09-11T10:01:36.846Z,24.9
2017-09-11T10:02:38.306Z,24.9
2017-09-11T10:03:39.746Z,25.1
2017-09-11T10:04:41.544Z,25
2017-09-11T10:05:43.723Z,25
2017-09-11T10:06:45.500Z,25
2017-09-11T10:07:47.312Z,24.9
2017-09-11T10:08:48.415Z,25
2017-09-11T10:09:50.208Z,25
2017-09-11T10:10:52.340Z,25
2017-09-11T10:11:54.139Z,25
2017-09-11T10:12:56.100Z,25
2017-09-11T10:13:58.235Z,25
2017-09-11T10:14:59.680Z,24.9
2017-09-11T10:16:01.808Z,25
2017-09-11T10:17:03.942Z,25
2017-09-11T10:18:05.777Z,25
2017-09-11T10:19:07.579Z,25.1
2017-09-11T10:20:09.197Z,25.1
2017-09-11T10:21:11.034Z,25.1
2017-09-11T10:22:12.830Z,25.2
2017-09-11T10:23:14.627Z,25.1
2017-09-11T10:24:16.094Z,25.1
2017-09-11T10:25:17.890Z,25.2
2017-09-11T10:26:19.691Z,25.2
2017-09-11T10:27:21.468Z,25.1
2017-09-11T10:28:23.258Z,25.2
2017-09-11T10:29:25.392Z,25.1
2017-09-11T10:30:27.528Z,25.1
2017-09-11T10:31:28.635Z,25.1
2017-09-11T10:32:30.431Z,25.2
2017-09-11T10:33:32.228Z,25.1
2017-09-11T10:34:34.026Z,25.2
2017-09-11T10:35:35.468Z,25.2
2017-09-11T10:36:37.597Z,25.1
2017-09-11T10:37:38.704Z,25.1
2017-09-11T10:38:40.833Z,25.2
2017-09-11T10:39:42.633Z,25.2
2017-09-11T10:40:44.427Z,25.1
2017-09-11T10:41:45.868Z,25.1
2017-09-11T10:42:47.642Z,25.1
2017-09-11T10:43:49.442Z,25.2
2017-09-11T10:44:51.574Z,25.2
2017-09-11T10:45:53.353Z,25.1
2017-09-11T10:46:54.857Z,25.1
2017-09-11T10:47:55.994Z,25.1
2017-09-11T10:48:57.435Z,25.1
2017-09-11T10:49:59.212Z,25.2
2017-09-11T10:51:00.668Z,25.1
2017-09-11T10:52:02.800Z,25.1
2017-09-11T10:53:04.931Z,25.2
2017-09-11T10:54:07.060Z,25.1
2017-09-11T10:55:08.838Z,25.1
2017-09-11T10:56:09.942Z,25.1
2017-09-11T10:57:11.838Z,25.1
2017-09-11T10:58:13.634Z,25.1
2017-09-11T10:59:15.765Z,25.1
2017-09-11T11:00:16.890Z,25.1
2017-09-11T11:01:18.331Z,25.1
2017-09-11T11:02:20.132Z,25.1
2017-09-11T11:03:21.944Z,25.1
2017-09-11T11:04:23.411Z,25.1
2017-09-11T11:05:24.879Z,25.1
2017-09-11T11:06:26.680Z,25
2017-09-11T11:07:28.479Z,25.2
2017-09-11T11:08:30.278Z,25.1
2017-09-11T11:09:32.085Z,25.1
2017-09-11T11:10:33.880Z,25.2
2017-09-11T11:11:34.989Z,25.2
2017-09-11T11:12:36.790Z,25.3
2017-09-11T11:13:38.563Z,25.3
2017-09-11T11:14:40.008Z,25.2
2017-09-11T11:15:42.143Z,25.3
2017-09-11T11:16:43.938Z,25.2
2017-09-11T11:17:45.734Z,25.3
2017-09-11T11:18:47.199Z,25.3
2017-09-11T11:19:48.637Z,25.3
2017-09-11T11:20:49.794Z,25.3
2017-09-11T11:21:51.919Z,25.3
2017-09-11T11:22:53.367Z,25.3
2017-09-11T11:23:55.159Z,25.3
2017-09-11T11:24:56.623Z,25.3
2017-09-11T11:25:58.088Z,25.2
2017-09-11T11:26:59.545Z,25.3
2017-09-11T11:28:00.981Z,25.3
2017-09-11T11:29:02.755Z,25.3
2017-09-11T11:30:04.889Z,25.2
2017-09-11T11:31:06.693Z,25.2
2017-09-11T11:32:08.482Z,25.3
2017-09-11T11:33:10.257Z,25.3
2017-09-11T11:34:12.054Z,25.3
2017-09-11T11:35:13.847Z,25.3
2017-09-11T11:36:15.977Z,25.3
2017-09-11T11:37:17.779Z,25.3
2017-09-11T11:38:19.579Z,25.2
2017-09-11T11:39:20.682Z,25.2
2017-09-11T11:40:22.814Z,25.3
2017-09-11T11:41:24.273Z,25.3
2017-09-11T11:42:25.051Z,25.3
2017-09-11T11:43:26.846Z,25.3
2017-09-11T11:44:28.285Z,25.3
2017-09-11T11:45:29.747Z,25.3
2017-09-11T11:46:31.541Z,25.3
2017-09-11T11:47:32.979Z,25.4
2017-09-11T11:48:34.749Z,25.3
2017-09-11T11:49:35.521Z,25.3
2017-09-11T11:50:37.654Z,25.3
2017-09-11T11:51:39.790Z,25.2
2017-09-11T11:52:41.919Z,25.3
2017-09-11T11:53:44.053Z,25.3
2017-09-11T11:54:45.491Z,25.4
2017-09-11T11:55:47.291Z,25.3
2017-09-11T11:56:48.750Z,25.3
2017-09-11T11:57:50.883Z,25.3
2017-09-11T11:58:52.678Z,25.3
2017-09-11T11:59:54.124Z,25.3
2017-09-11T12:00:55.249Z,25.2
2017-09-11T12:01:56.708Z,25.2
2017-09-11T12:02:58.511Z,25.2
2017-09-11T12:04:00.742Z,25.2
2017-09-11T12:05:02.199Z,25.3
2017-09-11T12:06:03.994Z,25.3
2017-09-11T12:07:05.790Z,25.4
2017-09-11T12:08:07.568Z,25.3
2017-09-11T12:09:08.667Z,25.3
2017-09-11T12:10:10.461Z,25.4
2017-09-11T12:11:12.232Z,25.3
2017-09-11T12:12:14.031Z,25.4
2017-09-11T12:13:15.492Z,25.4
2017-09-11T12:14:16.931Z,25.4
2017-09-11T12:15:18.395Z,25.5
2017-09-11T12:16:19.847Z,25.4
2017-09-11T12:17:21.651Z,25.4
2017-09-11T12:18:23.783Z,25.3
2017-09-11T12:19:24.553Z,25.4
2017-09-11T12:20:25.656Z,25.4
2017-09-11T12:21:27.787Z,25.4
2017-09-11T12:22:28.886Z,25.3
2017-09-11T12:23:30.660Z,25.4
2017-09-11T12:24:32.458Z,25.4
2017-09-11T12:25:34.257Z,25.4
2017-09-11T12:26:35.362Z,25.4
2017-09-11T12:27:37.487Z,25.4
2017-09-11T12:28:38.950Z,25.5
2017-09-11T12:29:40.748Z,25.4
2017-09-11T12:30:42.551Z,25.5
2017-09-11T12:31:43.996Z,25.4
2017-09-11T12:32:45.100Z,25.5
2017-09-11T12:33:47.230Z,25.5
2017-09-11T12:34:49.075Z,25.5
2017-09-11T12:35:51.209Z,25.5
2017-09-11T12:36:53.007Z,25.5
2017-09-11T12:37:54.803Z,25.5
2017-09-11T12:38:56.245Z,25.5
2017-09-11T12:39:58.373Z,25.5
2017-09-11T12:41:00.171Z,25.5
2017-09-11T12:42:02.303Z,25.5
2017-09-11T12:43:04.434Z,25.4
2017-09-11T12:44:05.540Z,25.4
2017-09-11T12:45:07.343Z,25.5
2017-09-11T12:46:08.797Z,25.4
2017-09-11T12:47:10.569Z,25.4
2017-09-11T12:48:12.345Z,25.5
2017-09-11T12:49:13.784Z,25.5
2017-09-11T12:50:15.575Z,25.4
2017-09-11T12:51:17.037Z,25.4
2017-09-11T12:52:18.839Z,25.4
2017-09-11T12:53:20.629Z,25.5
2017-09-11T12:54:22.760Z,25.5
2017-09-11T12:55:24.203Z,25.4
2017-09-11T12:56:26.329Z,25.5
2017-09-11T12:57:28.108Z,25.5
2017-09-11T12:58:29.907Z,25.5
2017-09-11T12:59:31.704Z,25.4
2017-09-11T13:00:32.807Z,25.5
2017-09-11T13:01:34.266Z,25.5
2017-09-11T13:02:35.709Z,25.5
2017-09-11T13:03:37.170Z,25.5
2017-09-11T13:04:39.298Z,25.5
2017-09-11T13:05:41.428Z,25.4
2017-09-11T13:06:43.558Z,25.4
2017-09-11T13:07:45.357Z,25.5
2017-09-11T13:08:46.819Z,25.5
2017-09-11T13:09:48.617Z,25.5
2017-09-11T13:10:50.396Z,25.5
2017-09-11T13:11:52.193Z,25.5
2017-09-11T13:12:54.323Z,25.5
2017-09-11T13:13:55.763Z,25.5
2017-09-11T13:14:57.537Z,25.5
2017-09-11T13:15:59.331Z,25.5
2017-09-11T13:17:00.438Z,25.5
2017-09-11T13:18:01.885Z,25.5
2017-09-11T13:19:03.323Z,25.5
2017-09-11T13:20:05.121Z,25.5
2017-09-11T13:21:05.943Z,25.5
2017-09-11T13:22:07.400Z,25.5
2017-09-11T13:23:09.193Z,25.5
2017-09-11T13:24:10.323Z,25.6
2017-09-11T13:25:11.789Z,25.5
2017-09-11T13:26:13.921Z,25.5
2017-09-11T13:27:15.359Z,25.5
2017-09-11T13:28:17.493Z,25.5
2017-09-11T13:29:18.598Z,25.5
2017-09-11T13:30:20.728Z,25.6
2017-09-11T13:31:22.501Z,25.5
2017-09-11T13:32:24.301Z,25.6
2017-09-11T13:33:25.760Z,25.5
2017-09-11T13:34:27.223Z,25.5
2017-09-11T13:35:28.993Z,25.6
2017-09-11T13:36:30.793Z,25.5
2017-09-11T13:37:32.232Z,25.5
2017-09-11T13:38:34.388Z,25.5
2017-09-11T13:39:36.160Z,25.5
2017-09-11T13:40:37.953Z,25.5
2017-09-11T13:41:39.413Z,25.5
2017-09-11T13:42:40.857Z,25.5
2017-09-11T13:43:42.318Z,25.5